Time;durP1;ratioP1;P1;durP2;ratioP2;P2;SDS_P1;SDS_P2;PMS_P1;PMS_P2;Temp;Humidity;BMP_temperature;BMP_pressure;BME280_temperature;BME280_humidity;BME280_pressure;Samples;Min_cycle;Max_cycle;Signal;HPM_P1;HPM_P2
2024/01/30 00:01:35;;;;;;;;;;;19.00;53.90;;;;;;5085890;28;43753;-78
2024/01/30 00:04:00;;;;;;;;;;;18.10;53.40;;;;;;5086732;28;43583;-78
2024/01/30 00:06:25;;;;;;;;;;;18.10;53.50;;;;;;5085550;28;43036;-78
2024/01/30 00:08:51;;;;;;;;;;;18.10;53.40;;;;;;5086090;27;43330;-78
2024/01/30 00:11:16;;;;;;;;;;;18.10;53.30;;;;;;5085369;27;43325;-78
2024/01/30 00:13:42;;;;;;;;;;;18.10;53.30;;;;;;5085765;27;42962;-78
2024/01/30 00:16:09;;;;;;;;;;;18.10;53.30;;;;;;5085666;27;42935;-77
2024/01/30 00:18:34;;;;;;;;;;;18.10;53.40;;;;;;5086104;27;42987;-78
2024/01/30 00:21:00;;;;;;;;;;;18.10;53.30;;;;;;5085700;27;42997;-77
2024/01/30 00:23:25;;;;;;;;;;;18.10;53.20;;;;;;5085761;28;43112;-78
2024/01/30 00:25:51;;;;;;;;;;;18.10;53.20;;;;;;5085357;27;44343;-77
2024/01/30 00:28:16;;;;;;;;;;;18.10;53.20;;;;;;5086620;28;42937;-78
2024/01/30 00:30:42;;;;;;;;;;;18.10;53.10;;;;;;5085922;27;42858;-78
2024/01/30 00:33:08;;;;;;;;;;;18.10;53.20;;;;;;5086586;28;42962;-78
2024/01/30 00:35:33;;;;;;;;;;;18.10;53.10;;;;;;5086133;27;43298;-77
2024/01/30 00:37:59;;;;;;;;;;;18.10;53.20;;;;;;5086230;28;42885;-78
2024/01/30 00:40:24;;;;;;;;;;;18.10;53.00;;;;;;5085615;28;43181;-78
2024/01/30 00:42:50;;;;;;;;;;;18.10;53.10;;;;;;5085577;27;43435;-78
2024/01/30 00:45:16;;;;;;;;;;;18.10;53.00;;;;;;5083203;27;43016;-78
2024/01/30 00:47:41;;;;;;;;;;;18.10;53.00;;;;;;5085346;27;43129;-77
2024/01/30 00:50:07;;;;;;;;;;;18.10;53.00;;;;;;5085299;27;43376;-78
2024/01/30 00:52:35;;;;;;;;;;;18.10;53.10;;;;;;5087523;28;43010;-77
2024/01/30 00:55:01;;;;;;;;;;;18.20;53.40;;;;;;5097690;27;43826;-78
2024/01/30 00:57:27;;;;;;;;;;;18.00;53.00;;;;;;5083173;27;42903;-77
2024/01/30 00:59:52;;;;;;;;;;;18.10;53.10;;;;;;5085854;27;43265;-77
2024/01/30 01:02:18;;;;;;;;;;;18.10;53.00;;;;;;5085322;27;42903;-77
2024/01/30 01:04:44;;;;;;;;;;;18.00;52.90;;;;;;5084071;27;42915;-78
2024/01/30 01:07:10;;;;;;;;;;;18.10;53.00;;;;;;5085177;28;42919;-77
2024/01/30 01:09:35;;;;;;;;;;;18.00;52.90;;;;;;5085491;27;43326;-77
2024/01/30 01:12:01;;;;;;;;;;;18.10;53.10;;;;;;5083039;28;42919;-77
2024/01/30 01:14:27;;;;;;;;;;;18.10;52.90;;;;;;5084746;28;44019;-78
2024/01/30 01:16:52;;;;;;;;;;;18.00;52.90;;;;;;5084625;28;42964;-77
2024/01/30 01:19:18;;;;;;;;;;;18.00;52.90;;;;;;5085281;28;42968;-77
2024/01/30 01:21:43;;;;;;;;;;;18.10;53.00;;;;;;5083508;28;44021;-77
2024/01/30 01:24:09;;;;;;;;;;;18.00;53.00;;;;;;5084093;28;43910;-77
2024/01/30 01:26:34;;;;;;;;;;;18.00;53.00;;;;;;5084608;28;42979;-77
2024/01/30 01:29:00;;;;;;;;;;;18.00;52.90;;;;;;5085374;27;42826;-77
2024/01/30 01:31:29;;;;;;;;;;;18.10;53.00;;;;;;5084985;27;42958;-77
2024/01/30 01:33:54;;;;;;;;;;;18.00;53.00;;;;;;5085308;28;43526;-77
2024/01/30 01:36:20;;;;;;;;;;;18.10;53.00;;;;;;5085283;27;43002;-77
2024/01/30 01:38:46;;;;;;;;;;;18.10;53.00;;;;;;5085260;27;43252;-77
2024/01/30 01:41:11;;;;;;;;;;;18.10;53.00;;;;;;5083903;27;42985;-78
2024/01/30 01:43:38;;;;;;;;;;;18.00;52.90;;;;;;5085218;28;42992;-77
2024/01/30 01:46:04;;;;;;;;;;;18.00;53.00;;;;;;5085163;27;43020;-78
2024/01/30 01:48:30;;;;;;;;;;;18.10;53.00;;;;;;5084549;27;43708;-77
2024/01/30 01:50:55;;;;;;;;;;;18.00;53.00;;;;;;5084019;28;42890;-78
2024/01/30 01:53:21;;;;;;;;;;;18.00;53.00;;;;;;5076561;27;43099;-78
2024/01/30 01:55:47;;;;;;;;;;;18.10;53.00;;;;;;5084477;27;42980;-77
2024/01/30 01:58:13;;;;;;;;;;;18.00;53.00;;;;;;5072552;28;43284;-78
2024/01/30 02:00:41;;;;;;;;;;;18.00;52.90;;;;;;5084644;27;42999;-78
2024/01/30 02:03:09;;;;;;;;;;;18.00;53.00;;;;;;5084212;27;43045;-78
2024/01/30 02:05:36;;;;;;;;;;;18.00;53.00;;;;;;5084458;28;44023;-78
2024/01/30 02:08:01;;;;;;;;;;;18.00;52.90;;;;;;5082983;27;44249;-78
2024/01/30 02:10:27;;;;;;;;;;;18.00;53.00;;;;;;5084213;28;42942;-77
2024/01/30 02:12:53;;;;;;;;;;;18.00;53.10;;;;;;5084219;27;43008;-77
2024/01/30 02:15:18;;;;;;;;;;;18.00;53.00;;;;;;5100042;27;43105;-79
2024/01/30 02:17:44;;;;;;;;;;;18.00;53.00;;;;;;5087696;27;43452;-79
2024/01/30 02:20:09;;;;;;;;;;;18.00;53.00;;;;;;5087333;27;42992;-79
2024/01/30 02:22:36;;;;;;;;;;;18.00;53.00;;;;;;5083258;27;43900;-79
2024/01/30 02:25:01;;;;;;;;;;;18.00;53.00;;;;;;5087325;27;43118;-79
2024/01/30 02:27:27;;;;;;;;;;;18.00;53.00;;;;;;5086939;27;43506;-80
2024/01/30 02:29:53;;;;;;;;;;;18.00;53.10;;;;;;5102575;27;43029;-80
2024/01/30 02:32:18;;;;;;;;;;;18.00;53.10;;;;;;5086474;27;43060;-79
2024/01/30 02:34:44;;;;;;;;;;;18.00;53.10;;;;;;5086935;27;42879;-78
2024/01/30 02:37:09;;;;;;;;;;;18.00;53.10;;;;;;5085695;27;44873;-79
2024/01/30 02:39:35;;;;;;;;;;;18.00;53.00;;;;;;5087169;28;43150;-79
2024/01/30 02:42:00;;;;;;;;;;;18.00;53.00;;;;;;5102719;27;44266;-80
2024/01/30 02:44:26;;;;;;;;;;;18.00;53.00;;;;;;5087008;27;42977;-79
2024/01/30 02:46:54;;;;;;;;;;;18.00;53.00;;;;;;5086617;27;43036;-78
2024/01/30 02:49:19;;;;;;;;;;;18.00;53.00;;;;;;5087548;27;43089;-79
2024/01/30 02:51:45;;;;;;;;;;;18.00;53.00;;;;;;5086131;27;43563;-79
2024/01/30 02:54:10;;;;;;;;;;;18.00;53.00;;;;;;5087361;28;42997;-79
2024/01/30 02:56:36;;;;;;;;;;;18.00;53.00;;;;;;5087202;27;43832;-79
2024/01/30 02:59:01;;;;;;;;;;;18.00;53.00;;;;;;5086978;27;43015;-80
2024/01/30 03:01:27;;;;;;;;;;;18.00;53.00;;;;;;5086180;28;43031;-78
2024/01/30 03:03:52;;;;;;;;;;;18.00;53.10;;;;;;5087794;27;42973;-78
2024/01/30 03:06:20;;;;;;;;;;;18.00;53.10;;;;;;5086364;27;43571;-79
2024/01/30 03:08:45;;;;;;;;;;;18.00;53.00;;;;;;5091981;27;43107;-79
2024/01/30 03:11:11;;;;;;;;;;;18.00;53.10;;;;;;5092411;27;43582;-79
2024/01/30 03:13:36;;;;;;;;;;;18.00;53.00;;;;;;5089171;28;42986;-78
2024/01/30 03:16:02;;;;;;;;;;;17.90;53.00;;;;;;5087283;27;42890;-80
2024/01/30 03:18:28;;;;;;;;;;;18.00;53.10;;;;;;5086941;27;42980;-79
2024/01/30 03:20:53;;;;;;;;;;;17.90;53.00;;;;;;5085376;27;43106;-80
2024/01/30 03:23:19;;;;;;;;;;;18.00;53.10;;;;;;5084495;28;42898;-79
2024/01/30 03:25:44;;;;;;;;;;;18.00;53.10;;;;;;5085189;27;43107;-79
2024/01/30 03:28:10;;;;;;;;;;;18.00;53.10;;;;;;5079166;27;44221;-78
2024/01/30 03:30:35;;;;;;;;;;;17.90;53.00;;;;;;5080467;27;43410;-79
2024/01/30 03:33:01;;;;;;;;;;;18.00;53.10;;;;;;5086532;28;42858;-79
2024/01/30 03:35:26;;;;;;;;;;;18.00;53.10;;;;;;5086164;28;43902;-79
2024/01/30 03:37:52;;;;;;;;;;;18.00;53.20;;;;;;5086062;28;43075;-79
2024/01/30 03:40:17;;;;;;;;;;;18.00;53.10;;;;;;5086163;27;42862;-79
2024/01/30 03:42:43;;;;;;;;;;;17.90;53.10;;;;;;5086106;28;42877;-80
2024/01/30 03:45:08;;;;;;;;;;;17.90;53.20;;;;;;5085259;28;44989;-79
2024/01/30 03:47:34;;;;;;;;;;;17.90;53.10;;;;;;5086484;28;42759;-79
2024/01/30 03:49:59;;;;;;;;;;;17.90;53.10;;;;;;5085994;28;43077;-78
2024/01/30 03:52:25;;;;;;;;;;;17.90;53.10;;;;;;5085037;27;43009;-78
2024/01/30 03:54:50;;;;;;;;;;;17.90;53.10;;;;;;5084961;28;44763;-79
2024/01/30 03:57:16;;;;;;;;;;;17.90;53.10;;;;;;5086285;27;42861;-78
2024/01/30 03:59:42;;;;;;;;;;;17.90;53.10;;;;;;5085463;27;43424;-79
2024/01/30 04:02:07;;;;;;;;;;;18.00;53.10;;;;;;5085023;27;42922;-79
2024/01/30 04:04:33;;;;;;;;;;;17.90;53.00;;;;;;5081795;27;43813;-79
2024/01/30 04:06:58;;;;;;;;;;;17.90;53.20;;;;;;5083313;27;43063;-79
2024/01/30 04:09:26;;;;;;;;;;;17.90;53.20;;;;;;5083969;27;42970;-80
2024/01/30 04:11:51;;;;;;;;;;;17.90;53.10;;;;;;5086035;27;43702;-79
2024/01/30 04:14:17;;;;;;;;;;;17.90;53.10;;;;;;5083561;28;43523;-78
2024/01/30 04:16:42;;;;;;;;;;;17.90;53.10;;;;;;5085965;27;42949;-78
2024/01/30 04:19:08;;;;;;;;;;;17.90;53.10;;;;;;5085341;28;42976;-78
2024/01/30 04:21:33;;;;;;;;;;;17.90;53.10;;;;;;5085169;28;43024;-80
2024/01/30 04:23:59;;;;;;;;;;;17.90;53.10;;;;;;5083358;27;42910;-79
2024/01/30 04:26:24;;;;;;;;;;;17.90;53.10;;;;;;5085764;27;42888;-79
2024/01/30 04:28:50;;;;;;;;;;;17.90;53.10;;;;;;5086104;27;42980;-78
2024/01/30 04:31:15;;;;;;;;;;;17.90;53.10;;;;;;5084775;28;42919;-79
2024/01/30 04:33:41;;;;;;;;;;;17.90;53.10;;;;;;5085537;28;43475;-77
2024/01/30 04:36:09;;;;;;;;;;;17.90;53.10;;;;;;5085354;27;42924;-79
2024/01/30 04:38:35;;;;;;;;;;;17.90;53.10;;;;;;5084907;27;43043;-79
2024/01/30 04:41:00;;;;;;;;;;;17.90;53.10;;;;;;5084806;27;42881;-79
2024/01/30 04:43:27;;;;;;;;;;;17.90;53.10;;;;;;5085265;28;43242;-79
2024/01/30 04:45:52;;;;;;;;;;;17.90;53.10;;;;;;5085492;27;43110;-79
2024/01/30 04:48:18;;;;;;;;;;;17.90;53.10;;;;;;5084738;27;42985;-79
2024/01/30 04:50:43;;;;;;;;;;;17.90;53.10;;;;;;5085049;28;43000;-79
2024/01/30 04:53:09;;;;;;;;;;;17.90;53.10;;;;;;5085120;28;43623;-78
2024/01/30 04:55:35;;;;;;;;;;;17.90;53.60;;;;;;5085151;27;42822;-79
2024/01/30 04:58:01;;;;;;;;;;;17.90;53.10;;;;;;5082708;27;42879;-79
2024/01/30 05:00:26;;;;;;;;;;;17.90;53.10;;;;;;5084862;27;42848;-79
2024/01/30 05:02:52;;;;;;;;;;;17.90;53.10;;;;;;5083392;28;43477;-79
2024/01/30 05:05:17;;;;;;;;;;;17.90;53.10;;;;;;5083881;27;43040;-79
2024/01/30 05:07:43;;;;;;;;;;;17.90;53.10;;;;;;5084183;28;42932;-79
2024/01/30 05:10:08;;;;;;;;;;;17.90;53.10;;;;;;5083188;28;43489;-79
2024/01/30 05:12:34;;;;;;;;;;;17.80;53.00;;;;;;5085128;27;43486;-79
2024/01/30 05:14:59;;;;;;;;;;;17.90;53.10;;;;;;5085420;28;42944;-78
2024/01/30 05:17:25;;;;;;;;;;;17.80;53.10;;;;;;5084787;27;42952;-78
2024/01/30 05:19:50;;;;;;;;;;;17.90;53.10;;;;;;5082441;27;42969;-79
2024/01/30 05:22:18;;;;;;;;;;;17.90;53.10;;;;;;5084398;28;42941;-78
2024/01/30 05:24:44;;;;;;;;;;;17.90;53.10;;;;;;5074270;28;43019;-78
2024/01/30 05:27:10;;;;;;;;;;;17.80;53.10;;;;;;5083228;28;43499;-77
2024/01/30 05:29:35;;;;;;;;;;;17.90;53.10;;;;;;5087742;27;43843;-79
2024/01/30 05:32:01;;;;;;;;;;;17.80;53.10;;;;;;5073235;28;44028;-79
2024/01/30 05:34:26;;;;;;;;;;;17.90;53.10;;;;;;5083931;28;43010;-78
2024/01/30 05:36:52;;;;;;;;;;;17.80;53.10;;;;;;5081583;27;42929;-78
2024/01/30 05:39:17;;;;;;;;;;;17.80;53.20;;;;;;5077160;28;43140;-76
2024/01/30 05:41:43;;;;;;;;;;;17.80;53.10;;;;;;5079278;28;43501;-79
2024/01/30 05:44:09;;;;;;;;;;;17.80;53.10;;;;;;5083689;28;43412;-76
2024/01/30 05:46:35;;;;;;;;;;;17.90;53.20;;;;;;5082677;27;43754;-77
2024/01/30 05:49:00;;;;;;;;;;;17.80;53.30;;;;;;5083567;27;42976;-76
2024/01/30 05:51:26;;;;;;;;;;;17.80;53.50;;;;;;5082333;28;43720;-76
2024/01/30 05:53:51;;;;;;;;;;;17.80;53.60;;;;;;5101700;27;43011;-80
2024/01/30 05:56:17;;;;;;;;;;;17.80;53.70;;;;;;5083206;28;43007;-79
2024/01/30 05:58:43;;;;;;;;;;;17.80;53.70;;;;;;5080265;28;43036;-76
2024/01/30 06:01:09;;;;;;;;;;;17.80;54.30;;;;;;5075936;27;43285;-78
2024/01/30 06:03:34;;;;;;;;;;;17.80;53.90;;;;;;5082563;28;43014;-79
2024/01/30 06:06:00;;;;;;;;;;;17.80;53.90;;;;;;5084070;27;43363;-78
2024/01/30 06:08:25;;;;;;;;;;;17.90;54.10;;;;;;5084299;28;43148;-78
2024/01/30 06:10:51;;;;;;;;;;;17.80;54.10;;;;;;5078404;27;43162;-79
2024/01/30 06:13:16;;;;;;;;;;;17.80;54.20;;;;;;5077346;27;42905;-79
2024/01/30 06:15:42;;;;;;;;;;;17.80;54.30;;;;;;5082090;28;43473;-80
2024/01/30 06:18:08;;;;;;;;;;;17.80;54.30;;;;;;5077896;27;43531;-78
2024/01/30 06:20:33;;;;;;;;;;;17.90;54.50;;;;;;5079585;28;43107;-78
2024/01/30 06:22:59;;;;;;;;;;;17.80;54.40;;;;;;5083094;27;42934;-77
2024/01/30 06:25:25;;;;;;;;;;;17.90;54.50;;;;;;5082211;28;43926;-82
2024/01/30 06:27:50;;;;;;;;;;;17.80;54.30;;;;;;5079288;28;43756;-81
2024/01/30 06:30:15;;;;;;;;;;;17.80;54.20;;;;;;5083329;27;42964;-82
2024/01/30 06:32:41;;;;;;;;;;;17.90;54.20;;;;;;5079142;28;43310;-81
2024/01/30 06:35:07;;;;;;;;;;;17.90;54.20;;;;;;5081768;28;43049;-81
2024/01/30 06:37:32;;;;;;;;;;;17.80;54.20;;;;;;5083139;27;43216;-82
2024/01/30 06:39:58;;;;;;;;;;;17.80;54.20;;;;;;5076954;28;43538;-83
2024/01/30 06:42:23;;;;;;;;;;;17.80;54.30;;;;;;5076538;27;42960;-80
2024/01/30 06:44:49;;;;;;;;;;;17.80;54.20;;;;;;5082133;28;42914;-82
2024/01/30 06:47:14;;;;;;;;;;;17.80;54.20;;;;;;5083148;27;43007;-81
2024/01/30 06:49:42;;;;;;;;;;;17.80;54.20;;;;;;5082920;27;43594;-80
2024/01/30 06:52:08;;;;;;;;;;;17.50;54.20;;;;;;5097105;27;43197;-84
2024/01/30 06:54:33;;;;;;;;;;;17.80;54.30;;;;;;5076673;28;43054;-85
2024/01/30 06:56:59;;;;;;;;;;;17.80;54.40;;;;;;5076272;28;43028;-79
2024/01/30 06:59:25;;;;;;;;;;;18.60;54.70;;;;;;5081484;27;43375;-87
2024/01/30 07:01:50;;;;;;;;;;;17.80;54.50;;;;;;5080463;27;43024;-89
2024/01/30 07:04:16;;;;;;;;;;;17.80;49.00;;;;;;5082883;27;42869;-90
2024/01/30 07:06:42;;;;;;;;;;;17.60;44.50;;;;;;5085316;27;43098;-84
2024/01/30 07:09:08;;;;;;;;;;;17.30;47.50;;;;;;5077348;28;43456;-91
2024/01/30 07:11:33;;;;;;;;;;;17.30;50.20;;;;;;5081199;27;43050;-92
2024/01/30 07:13:59;;;;;;;;;;;17.30;52.10;;;;;;5086095;28;43131;-80
2024/01/30 07:16:25;;;;;;;;;;;17.30;51.90;;;;;;5085648;28;43109;-83
2024/01/30 07:18:50;;;;;;;;;;;17.40;52.60;;;;;;5083686;27;43867;-80
2024/01/30 07:21:16;;;;;;;;;;;17.40;52.00;;;;;;5084862;28;42942;-87
2024/01/30 07:23:42;;;;;;;;;;;17.50;52.10;;;;;;5084778;28;42978;-83
2024/01/30 07:26:08;;;;;;;;;;;17.50;52.10;;;;;;5081960;27;43309;-81
2024/01/30 07:28:34;;;;;;;;;;;17.60;52.20;;;;;;5080744;28;43973;-88
2024/01/30 07:31:00;;;;;;;;;;;17.60;52.20;;;;;;5082684;28;43681;-88
2024/01/30 07:33:25;;;;;;;;;;;17.60;52.30;;;;;;5083877;27;43656;-89
2024/01/30 07:35:52;;;;;;;;;;;17.60;52.50;;;;;;5084012;28;43162;-87
2024/01/30 07:38:17;;;;;;;;;;;17.70;48.90;;;;;;5084367;27;44273;-80
2024/01/30 07:40:43;;;;;;;;;;;17.50;42.60;;;;;;5081855;28;42917;-89
2024/01/30 07:43:09;;;;;;;;;;;17.20;40.00;;;;;;5089504;27;42948;-82
2024/01/30 07:45:34;;;;;;;;;;;16.80;39.20;;;;;;5095783;27;42847;-80
2024/01/30 07:48:00;;;;;;;;;;;16.60;39.40;;;;;;5087493;27;42945;-84
2024/01/30 07:50:25;;;;;;;;;;;16.30;37.70;;;;;;5086457;27;42992;-83
2024/01/30 07:52:54;;;;;;;;;;;16.10;37.30;;;;;;5086624;27;43417;-84
2024/01/30 07:55:24;;;;;;;;;;;15.80;37.00;;;;;;5084979;27;43434;-80
2024/01/30 07:57:51;;;;;;;;;;;15.70;38.10;;;;;;5072944;28;43643;-82
2024/01/30 08:00:17;;;;;;;;;;;15.70;40.10;;;;;;5078973;28;43107;-84
2024/01/30 08:02:43;;;;;;;;;;;15.90;41.50;;;;;;5086382;27;44803;-77
2024/01/30 08:05:11;;;;;;;;;;;16.10;42.70;;;;;;5086274;27;43324;-76
2024/01/30 08:07:36;;;;;;;;;;;16.20;43.30;;;;;;5086506;27;43547;-85
2024/01/30 08:10:02;;;;;;;;;;;16.40;43.70;;;;;;5086319;27;42960;-78
2024/01/30 08:12:27;;;;;;;;;;;16.50;44.10;;;;;;5085913;27;43024;-83
2024/01/30 08:14:53;;;;;;;;;;;16.70;44.70;;;;;;5085984;27;42988;-80
2024/01/30 08:17:18;;;;;;;;;;;16.80;45.00;;;;;;5086859;28;43573;-83
2024/01/30 08:19:44;;;;;;;;;;;16.80;45.30;;;;;;5085945;28;42851;-84
2024/01/30 08:22:09;;;;;;;;;;;16.90;45.60;;;;;;5086160;28;43660;-85
2024/01/30 08:24:35;;;;;;;;;;;17.00;46.00;;;;;;5086716;28;43023;-78
2024/01/30 08:27:02;;;;;;;;;;;17.10;46.30;;;;;;5086600;27;43291;-78
2024/01/30 08:29:28;;;;;;;;;;;17.20;46.50;;;;;;5086264;27;43097;-77
2024/01/30 08:31:55;;;;;;;;;;;17.20;46.70;;;;;;5086620;28;43069;-77
2024/01/30 08:34:21;;;;;;;;;;;17.30;46.40;;;;;;5078305;27;43102;-83
2024/01/30 08:36:46;;;;;;;;;;;17.30;47.10;;;;;;5081163;28;42921;-81
2024/01/30 08:39:12;;;;;;;;;;;17.40;47.40;;;;;;5084157;28;43024;-74
2024/01/30 08:41:37;;;;;;;;;;;17.40;47.50;;;;;;5083839;27;43588;-78
2024/01/30 08:44:04;;;;;;;;;;;17.40;47.70;;;;;;5082482;28;43039;-78
2024/01/30 08:46:30;;;;;;;;;;;17.50;47.80;;;;;;5073663;27;43726;-82
2024/01/30 08:48:56;;;;;;;;;;;17.50;48.10;;;;;;5085290;27;42938;-79
2024/01/30 08:51:21;;;;;;;;;;;17.50;48.00;;;;;;5084148;27;43051;-83
2024/01/30 08:53:47;;;;;;;;;;;17.50;48.20;;;;;;5084225;27;42946;-77
2024/01/30 08:56:13;;;;;;;;;;;17.50;48.30;;;;;;5084284;27;43851;-77
2024/01/30 08:58:39;;;;;;;;;;;17.60;48.40;;;;;;5084480;27;43183;-83
2024/01/30 09:01:05;;;;;;;;;;;17.60;48.50;;;;;;5085380;27;43260;-84
2024/01/30 09:03:31;;;;;;;;;;;17.60;48.50;;;;;;5085063;27;42945;-79
2024/01/30 09:05:56;;;;;;;;;;;17.60;48.60;;;;;;5085198;28;43554;-83
2024/01/30 09:08:22;;;;;;;;;;;17.60;48.80;;;;;;5084518;27;42884;-78
2024/01/30 09:10:48;;;;;;;;;;;17.60;48.70;;;;;;5083277;28;43436;-81
2024/01/30 09:13:13;;;;;;;;;;;17.60;48.80;;;;;;5083191;27;43183;-82
2024/01/30 09:15:39;;;;;;;;;;;17.60;48.90;;;;;;5083766;28;42934;-83
2024/01/30 09:18:04;;;;;;;;;;;17.60;48.90;;;;;;5083124;27;43143;-85
2024/01/30 09:20:30;;;;;;;;;;;17.70;49.10;;;;;;5080523;28;43289;-78
2024/01/30 09:22:56;;;;;;;;;;;17.70;49.20;;;;;;5083027;27;42840;-78
2024/01/30 09:25:21;;;;;;;;;;;17.70;49.20;;;;;;5081649;27;43856;-79
2024/01/30 09:27:47;;;;;;;;;;;17.70;49.40;;;;;;5082599;27;42896;-79
2024/01/30 09:30:12;;;;;;;;;;;17.70;49.30;;;;;;5083472;28;43699;-75
2024/01/30 09:32:39;;;;;;;;;;;17.60;42.80;;;;;;5083755;27;43106;-81
2024/01/30 09:35:04;;;;;;;;;;;17.40;39.50;;;;;;5082995;28;45067;-79
2024/01/30 09:37:30;;;;;;;;;;;17.20;38.90;;;;;;5084487;27;43000;-82
2024/01/30 09:39:56;;;;;;;;;;;17.00;38.40;;;;;;5084685;28;42940;-81
2024/01/30 09:42:24;;;;;;;;;;;16.90;39.70;;;;;;5085180;27;43077;-82
2024/01/30 09:44:51;;;;;;;;;;;17.00;40.20;;;;;;5084916;28;43530;-77
2024/01/30 09:47:17;;;;;;;;;;;17.00;40.50;;;;;;5085033;27;42901;-78
2024/01/30 09:49:46;;;;;;;;;;;17.00;41.60;;;;;;5084796;28;43414;-79
2024/01/30 09:52:12;;;;;;;;;;;17.10;42.50;;;;;;5084647;27;43810;-78
2024/01/30 09:54:38;;;;;;;;;;;17.10;43.60;;;;;;5085111;28;43449;-81
2024/01/30 09:57:04;;;;;;;;;;;17.20;44.10;;;;;;5084437;27;42972;-82
2024/01/30 09:59:30;;;;;;;;;;;17.30;44.60;;;;;;5084793;27;43258;-81
2024/01/30 10:01:56;;;;;;;;;;;17.40;45.00;;;;;;5086990;27;42918;-82
2024/01/30 10:04:22;;;;;;;;;;;17.40;45.30;;;;;;5093210;28;42803;-81
2024/01/30 10:06:47;;;;;;;;;;;17.40;45.60;;;;;;5085024;27;42977;-77
2024/01/30 10:09:13;;;;;;;;;;;17.50;45.90;;;;;;5084962;28;42935;-80
2024/01/30 10:11:39;;;;;;;;;;;17.50;46.10;;;;;;5083824;27;42882;-79
2024/01/30 10:14:04;;;;;;;;;;;17.60;46.30;;;;;;5084590;28;42951;-81
2024/01/30 10:16:30;;;;;;;;;;;17.60;46.50;;;;;;5084292;28;42956;-80
2024/01/30 10:18:56;;;;;;;;;;;17.60;46.60;;;;;;5084601;28;42928;-76
2024/01/30 10:21:22;;;;;;;;;;;17.60;46.80;;;;;;5084178;28;42965;-80
2024/01/30 10:23:47;;;;;;;;;;;17.60;46.90;;;;;;5084871;28;43388;-77
2024/01/30 10:26:13;;;;;;;;;;;17.60;47.10;;;;;;5084691;27;43054;-81
2024/01/30 10:28:39;;;;;;;;;;;17.70;47.20;;;;;;5084538;27;43464;-80
2024/01/30 10:31:04;;;;;;;;;;;17.70;47.30;;;;;;5084853;28;42889;-81
2024/01/30 10:33:30;;;;;;;;;;;17.70;47.50;;;;;;5084666;28;43541;-80
2024/01/30 10:36:05;;;;;;;;;;;17.70;47.50;;;;;;5083938;27;43090;-81
2024/01/30 10:38:31;;;;;;;;;;;17.70;47.50;;;;;;5087014;27;44398;-81
2024/01/30 10:40:57;;;;;;;;;;;17.70;47.50;;;;;;5087582;27;43031;-80
2024/01/30 10:43:24;;;;;;;;;;;17.70;47.60;;;;;;5088368;27;44010;-81
2024/01/30 10:45:53;;;;;;;;;;;17.80;47.70;;;;;;5087831;27;43019;-80
2024/01/30 10:48:18;;;;;;;;;;;17.70;47.70;;;;;;5088119;27;43681;-79
2024/01/30 10:50:45;;;;;;;;;;;17.80;47.80;;;;;;5087870;27;42915;-80
2024/01/30 10:53:11;;;;;;;;;;;17.80;47.90;;;;;;5087983;27;43798;-78
2024/01/30 10:55:37;;;;;;;;;;;17.80;48.00;;;;;;5087748;27;42973;-81
2024/01/30 10:58:03;;;;;;;;;;;17.80;48.10;;;;;;5087607;27;43029;-77
2024/01/30 11:00:29;;;;;;;;;;;17.80;48.10;;;;;;5087613;27;42972;-81
2024/01/30 11:02:54;;;;;;;;;;;17.80;48.20;;;;;;5087555;27;43856;-81
2024/01/30 11:05:26;;;;;;;;;;;17.80;48.20;;;;;;5087345;27;43035;-80
2024/01/30 11:07:51;;;;;;;;;;;17.80;48.20;;;;;;5087380;27;42966;-80
2024/01/30 11:10:17;;;;;;;;;;;17.80;48.30;;;;;;5087927;27;42978;-81
2024/01/30 11:12:43;;;;;;;;;;;17.80;48.40;;;;;;5087560;27;43106;-81
2024/01/30 11:15:10;;;;;;;;;;;17.80;48.50;;;;;;5086565;27;42962;-81
2024/01/30 11:17:47;;;;;;;;;;;17.90;48.60;;;;;;5087085;27;43011;-81
2024/01/30 11:20:16;;;;;;;;;;;17.80;48.50;;;;;;5087243;27;43011;-79
2024/01/30 11:22:45;;;;;;;;;;;17.80;48.60;;;;;;5087016;27;43551;-81
2024/01/30 11:25:12;;;;;;;;;;;17.80;48.60;;;;;;5087324;27;43017;-80
2024/01/30 11:27:38;;;;;;;;;;;17.80;48.80;;;;;;5086502;27;42966;-82
2024/01/30 11:30:04;;;;;;;;;;;17.90;48.90;;;;;;5087122;28;43059;-80
2024/01/30 11:32:29;;;;;;;;;;;17.90;49.00;;;;;;5087438;27;43344;-80
2024/01/30 11:34:55;;;;;;;;;;;17.90;49.20;;;;;;5077484;27;42902;-80
2024/01/30 11:37:21;;;;;;;;;;;17.90;49.00;;;;;;5083103;27;42847;-79
2024/01/30 11:39:47;;;;;;;;;;;17.90;49.10;;;;;;5086997;27;42899;-80
2024/01/30 11:42:13;;;;;;;;;;;17.90;49.10;;;;;;5086527;27;43755;-78
2024/01/30 11:44:39;;;;;;;;;;;17.90;49.20;;;;;;5086993;27;43043;-79
2024/01/30 11:47:04;;;;;;;;;;;17.90;49.20;;;;;;5086975;28;42957;-82
2024/01/30 11:49:30;;;;;;;;;;;17.90;49.40;;;;;;5086496;27;42949;-79
2024/01/30 11:51:56;;;;;;;;;;;17.90;49.40;;;;;;5086748;27;43345;-80
2024/01/30 11:54:21;;;;;;;;;;;17.90;49.30;;;;;;5086855;28;42802;-79
2024/01/30 11:56:47;;;;;;;;;;;17.90;49.50;;;;;;5086428;27;43472;-81
2024/01/30 11:59:13;;;;;;;;;;;17.90;49.50;;;;;;5086979;27;43051;-82
2024/01/30 12:01:39;;;;;;;;;;;17.90;49.40;;;;;;5086635;27;42985;-81
2024/01/30 12:04:08;;;;;;;;;;;17.90;49.40;;;;;;5086844;27;42939;-82
2024/01/30 12:06:34;;;;;;;;;;;17.90;49.50;;;;;;5086126;27;43240;-81
2024/01/30 12:09:00;;;;;;;;;;;17.90;49.50;;;;;;5086468;28;42928;-80
2024/01/30 12:11:26;;;;;;;;;;;18.10;49.60;;;;;;5086337;27;42998;-78
2024/01/30 12:13:52;;;;;;;;;;;17.90;49.60;;;;;;5086534;27;42942;-82
2024/01/30 12:16:18;;;;;;;;;;;17.90;49.50;;;;;;5086375;27;43669;-79
2024/01/30 12:18:43;;;;;;;;;;;17.90;49.70;;;;;;5086767;27;42894;-81
2024/01/30 12:21:09;;;;;;;;;;;17.90;50.00;;;;;;5084844;27;43150;-78
2024/01/30 12:23:35;;;;;;;;;;;17.90;49.70;;;;;;5086448;27;42822;-79
2024/01/30 12:26:01;;;;;;;;;;;17.90;49.80;;;;;;5093383;27;42831;-82
2024/01/30 12:28:26;;;;;;;;;;;17.90;49.70;;;;;;5091621;27;42750;-82
2024/01/30 12:31:04;;;;;;;;;;;18.00;49.80;;;;;;5086259;27;43001;-82
2024/01/30 12:33:30;;;;;;;;;;;18.00;49.80;;;;;;5086302;27;42904;-81
2024/01/30 12:35:56;;;;;;;;;;;18.00;49.90;;;;;;5085819;27;43656;-81
2024/01/30 12:38:23;;;;;;;;;;;18.00;49.80;;;;;;5086233;27;42909;-79
2024/01/30 12:40:49;;;;;;;;;;;18.00;49.90;;;;;;5085538;27;43522;-81
2024/01/30 12:43:14;;;;;;;;;;;17.90;49.90;;;;;;5086308;27;43051;-80
2024/01/30 12:45:41;;;;;;;;;;;18.00;50.10;;;;;;5085680;27;42861;-81
2024/01/30 12:48:07;;;;;;;;;;;17.90;50.10;;;;;;5086122;27;42973;-81
2024/01/30 12:50:32;;;;;;;;;;;17.90;50.10;;;;;;5071630;27;44803;-80
2024/01/30 12:52:58;;;;;;;;;;;17.90;50.30;;;;;;5083569;27;43036;-81
2024/01/30 12:55:24;;;;;;;;;;;17.90;50.10;;;;;;5085445;27;43730;-80
2024/01/30 12:57:50;;;;;;;;;;;18.00;50.10;;;;;;5085339;28;43036;-81
2024/01/30 13:00:16;;;;;;;;;;;18.00;50.10;;;;;;5084755;27;44534;-82
2024/01/30 13:02:44;;;;;;;;;;;18.00;50.10;;;;;;5085557;27;43074;-81
2024/01/30 13:05:10;;;;;;;;;;;18.00;50.20;;;;;;5084924;27;42951;-80
2024/01/30 13:07:35;;;;;;;;;;;18.00;50.20;;;;;;5085428;27;43079;-78
2024/01/30 13:10:03;;;;;;;;;;;18.00;50.20;;;;;;5085090;27;43681;-81
2024/01/30 13:12:29;;;;;;;;;;;17.70;50.10;;;;;;5085584;27;43232;-82
2024/01/30 13:14:54;;;;;;;;;;;17.90;50.20;;;;;;5085129;27;43907;-82
2024/01/30 13:17:20;;;;;;;;;;;18.00;50.20;;;;;;5085729;27;42920;-81
2024/01/30 13:19:45;;;;;;;;;;;17.90;50.20;;;;;;5083816;27;44941;-82
2024/01/30 13:22:11;;;;;;;;;;;17.90;50.20;;;;;;5085813;28;42995;-79
2024/01/30 13:24:36;;;;;;;;;;;18.00;50.30;;;;;;5085143;27;42885;-82
2024/01/30 13:27:05;;;;;;;;;;;18.00;50.30;;;;;;5085137;27;43064;-81
2024/01/30 13:29:31;;;;;;;;;;;18.00;50.30;;;;;;5084944;27;42933;-80
2024/01/30 13:31:56;;;;;;;;;;;18.00;50.40;;;;;;5085608;28;42847;-82
2024/01/30 13:34:22;;;;;;;;;;;18.00;50.30;;;;;;5087568;27;44384;-81
2024/01/30 13:36:48;;;;;;;;;;;18.00;50.30;;;;;;5084916;28;42851;-81
2024/01/30 13:39:14;;;;;;;;;;;18.00;50.30;;;;;;5084721;27;43877;-83
2024/01/30 13:41:41;;;;;;;;;;;18.00;50.30;;;;;;5085643;27;42988;-81
2024/01/30 13:44:07;;;;;;;;;;;18.00;50.30;;;;;;5085241;27;43607;-78
2024/01/30 13:46:32;;;;;;;;;;;18.00;50.40;;;;;;5084850;28;42987;-79
2024/01/30 13:48:58;;;;;;;;;;;18.00;50.30;;;;;;5084454;27;43631;-79
2024/01/30 13:51:23;;;;;;;;;;;18.00;50.40;;;;;;5085132;28;43046;-82
2024/01/30 13:53:50;;;;;;;;;;;18.00;50.40;;;;;;5085746;27;43025;-83
2024/01/30 13:56:15;;;;;;;;;;;18.00;50.40;;;;;;5084298;27;43056;-81
2024/01/30 13:58:41;;;;;;;;;;;18.00;50.50;;;;;;5084226;27;43639;-83
2024/01/30 14:01:06;;;;;;;;;;;18.00;50.50;;;;;;5083226;27;42767;-83
2024/01/30 14:03:32;;;;;;;;;;;18.00;50.40;;;;;;5082955;27;45602;-82
2024/01/30 14:05:57;;;;;;;;;;;18.00;50.90;;;;;;5084985;28;42975;-83
2024/01/30 14:08:26;;;;;;;;;;;18.00;50.40;;;;;;5083840;27;43723;-82